Terminal Aerodrome Forecast
Issued by NWS

Current Version | Previous Version | Text Only | Print | Product List | Glossary Off
Versions: 1 2 3 4 5 6 7 8 9 10 11 12 13 14 15 16

045
FTUS42 KMHX 071138
TAFOAJ
TAF
KOAJ 071138Z 0712/0812 01015G23KT 6SM -RA OVC020
     FM071600 01016G25KT 5SM -RA SCT007 OVC015
     FM080000 34012G20KT P6SM BKN045
     FM080600 33011KT P6SM FEW090
      AMD LTD TO CLD VIS AND WIND=

USA.gov is the U.S. government's official web portal to all federal, state and local government web resources and services.